sensor_id;sensor_type;location;lat;lon;timestamp;temperature;humidity
26947;DHT22;14501;52.282;10.560;2022-12-18T00:00:29;-7.10;99.90
26947;DHT22;14501;52.282;10.560;2022-12-18T00:02:55;-7.10;99.90
26947;DHT22;14501;52.282;10.560;2022-12-18T00:05:21;-7.20;99.90
26947;DHT22;14501;52.282;10.560;2022-12-18T00:07:46;-7.20;99.90
26947;DHT22;14501;52.282;10.560;2022-12-18T00:10:12;-7.20;99.90
26947;DHT22;14501;52.282;10.560;2022-12-18T00:12:37;-7.30;99.90
26947;DHT22;14501;52.282;10.560;2022-12-18T00:15:03;-7.30;99.90
26947;DHT22;14501;52.282;10.560;2022-12-18T00:17:29;-7.30;99.90
26947;DHT22;14501;52.282;10.560;2022-12-18T00:19:54;-7.40;99.90
26947;DHT22;14501;52.282;10.560;2022-12-18T00:22:20;-7.40;99.90
26947;DHT22;14501;52.282;10.560;2022-12-18T00:24:45;-7.40;99.90
26947;DHT22;14501;52.282;10.560;2022-12-18T00:27:11;-7.50;99.90
26947;DHT22;14501;52.282;10.560;2022-12-18T00:29:36;-7.40;99.90
26947;DHT22;14501;52.282;10.560;2022-12-18T00:32:02;-7.40;99.90
26947;DHT22;14501;52.282;10.560;2022-12-18T00:34:28;-7.40;99.90
26947;DHT22;14501;52.282;10.560;2022-12-18T00:36:53;-7.40;99.90
26947;DHT22;14501;52.282;10.560;2022-12-18T00:39:19;-7.40;99.90
26947;DHT22;14501;52.282;10.560;2022-12-18T00:41:44;-7.20;99.90
26947;DHT22;14501;52.282;10.560;2022-12-18T00:44:29;-7.40;99.90
26947;DHT22;14501;52.282;10.560;2022-12-18T00:46:54;-7.40;99.90
26947;DHT22;14501;52.282;10.560;2022-12-18T00:49:20;-7.30;99.90
26947;DHT22;14501;52.282;10.560;2022-12-18T00:51:46;-7.20;99.90
26947;DHT22;14501;52.282;10.560;2022-12-18T00:54:12;-7.40;99.90
26947;DHT22;14501;52.282;10.560;2022-12-18T00:56:39;-7.40;99.90
26947;DHT22;14501;52.282;10.560;2022-12-18T00:59:05;-7.40;99.90
26947;DHT22;14501;52.282;10.560;2022-12-18T01:01:30;-7.40;99.90
26947;DHT22;14501;52.282;10.560;2022-12-18T01:03:56;-7.40;99.90
26947;DHT22;14501;52.282;10.560;2022-12-18T01:06:22;-7.40;99.90
26947;DHT22;14501;52.282;10.560;2022-12-18T01:08:47;-7.50;99.90
26947;DHT22;14501;52.282;10.560;2022-12-18T01:11:18;-7.50;99.90
26947;DHT22;14501;52.282;10.560;2022-12-18T01:13:44;-7.50;99.90
26947;DHT22;14501;52.282;10.560;2022-12-18T01:16:14;-7.50;99.90
26947;DHT22;14501;52.282;10.560;2022-12-18T01:18:41;-7.50;99.90
26947;DHT22;14501;52.282;10.560;2022-12-18T01:21:08;-7.60;99.90
26947;DHT22;14501;52.282;10.560;2022-12-18T01:23:34;-7.60;99.90
26947;DHT22;14501;52.282;10.560;2022-12-18T01:26:14;-7.60;99.90
26947;DHT22;14501;52.282;10.560;2022-12-18T01:28:41;-7.60;99.90
26947;DHT22;14501;52.282;10.560;2022-12-18T01:31:19;-7.60;99.90
26947;DHT22;14501;52.282;10.560;2022-12-18T01:33:45;-7.70;99.90
26947;DHT22;14501;52.282;10.560;2022-12-18T01:36:22;-7.70;99.90
26947;DHT22;14501;52.282;10.560;2022-12-18T01:38:49;-7.70;99.90
26947;DHT22;14501;52.282;10.560;2022-12-18T01:41:19;-7.70;99.90
26947;DHT22;14501;52.282;10.560;2022-12-18T01:46:17;-7.70;99.90
26947;DHT22;14501;52.282;10.560;2022-12-18T01:48:45;-7.80;99.90
26947;DHT22;14501;52.282;10.560;2022-12-18T01:51:12;-7.80;99.90
26947;DHT22;14501;52.282;10.560;2022-12-18T01:53:40;-7.80;99.90
26947;DHT22;14501;52.282;10.560;2022-12-18T01:56:06;-7.80;99.90
26947;DHT22;14501;52.282;10.560;2022-12-18T01:58:44;-7.80;99.90
26947;DHT22;14501;52.282;10.560;2022-12-18T02:01:11;-7.80;99.90
26947;DHT22;14501;52.282;10.560;2022-12-18T02:03:37;-7.80;99.90
26947;DHT22;14501;52.282;10.560;2022-12-18T02:06:13;-7.90;99.90
26947;DHT22;14501;52.282;10.560;2022-12-18T02:11:59;-7.90;99.90
26947;DHT22;14501;52.282;10.560;2022-12-18T02:17:14;-8.10;99.90
26947;DHT22;14501;52.282;10.560;2022-12-18T02:22:50;-8.20;99.90
26947;DHT22;14501;52.282;10.560;2022-12-18T02:28:09;-8.20;99.90
26947;DHT22;14501;52.282;10.560;2022-12-18T02:30:38;-8.30;99.90
26947;DHT22;14501;52.282;10.560;2022-12-18T02:33:05;-8.20;99.90
26947;DHT22;14501;52.282;10.560;2022-12-18T02:35:33;-8.30;99.90
26947;DHT22;14501;52.282;10.560;2022-12-18T02:38:00;-8.30;99.90
26947;DHT22;14501;52.282;10.560;2022-12-18T02:40:27;-8.20;99.90
26947;DHT22;14501;52.282;10.560;2022-12-18T02:42:53;-8.20;99.90
26947;DHT22;14501;52.282;10.560;2022-12-18T02:45:19;-8.20;99.90
26947;DHT22;14501;52.282;10.560;2022-12-18T02:47:48;-8.20;99.90
26947;DHT22;14501;52.282;10.560;2022-12-18T02:50:28;-8.20;99.90
26947;DHT22;14501;52.282;10.560;2022-12-18T03:04:12;-8.20;99.90
26947;DHT22;14501;52.282;10.560;2022-12-18T03:06:43;-8.20;99.90
26947;DHT22;14501;52.282;10.560;2022-12-18T03:09:14;-8.20;99.90
26947;DHT22;14501;52.282;10.560;2022-12-18T03:11:42;-8.20;99.90
26947;DHT22;14501;52.282;10.560;2022-12-18T03:14:30;-8.20;99.90
26947;DHT22;14501;52.282;10.560;2022-12-18T03:17:02;-8.30;99.90
26947;DHT22;14501;52.282;10.560;2022-12-18T03:19:32;-8.30;99.90
26947;DHT22;14501;52.282;10.560;2022-12-18T03:22:00;-8.30;99.90
26947;DHT22;14501;52.282;10.560;2022-12-18T03:24:29;-8.30;99.90
26947;DHT22;14501;52.282;10.560;2022-12-18T03:27:01;-8.30;99.90
26947;DHT22;14501;52.282;10.560;2022-12-18T03:32:04;-8.10;99.90
26947;DHT22;14501;52.282;10.560;2022-12-18T03:34:35;-8.20;99.90
26947;DHT22;14501;52.282;10.560;2022-12-18T03:37:02;-8.20;99.90
26947;DHT22;14501;52.282;10.560;2022-12-18T03:39:28;-8.20;99.90
26947;DHT22;14501;52.282;10.560;2022-12-18T03:42:21;-8.30;99.90
26947;DHT22;14501;52.282;10.560;2022-12-18T03:45:13;-8.20;99.90
26947;DHT22;14501;52.282;10.560;2022-12-18T03:48:02;-8.30;99.90
26947;DHT22;14501;52.282;10.560;2022-12-18T03:50:32;-8.30;99.90
26947;DHT22;14501;52.282;10.560;2022-12-18T03:55:47;-8.40;99.90
26947;DHT22;14501;52.282;10.560;2022-12-18T03:58:17;-8.40;99.90
26947;DHT22;14501;52.282;10.560;2022-12-18T04:00:44;-8.40;99.90
26947;DHT22;14501;52.282;10.560;2022-12-18T04:03:10;-8.40;99.90
26947;DHT22;14501;52.282;10.560;2022-12-18T04:05:37;-8.50;99.90
26947;DHT22;14501;52.282;10.560;2022-12-18T04:08:04;-8.50;99.90
26947;DHT22;14501;52.282;10.560;2022-12-18T04:10:30;-8.50;99.90
26947;DHT22;14501;52.282;10.560;2022-12-18T04:12:57;-8.50;99.90
26947;DHT22;14501;52.282;10.560;2022-12-18T04:15:23;-8.60;99.90
26947;DHT22;14501;52.282;10.560;2022-12-18T04:17:50;-8.50;99.90
26947;DHT22;14501;52.282;10.560;2022-12-18T04:20:16;-8.50;99.90
26947;DHT22;14501;52.282;10.560;2022-12-18T04:22:41;-8.60;99.90
26947;DHT22;14501;52.282;10.560;2022-12-18T04:25:07;-8.60;99.90
26947;DHT22;14501;52.282;10.560;2022-12-18T04:27:33;-8.60;99.90
26947;DHT22;14501;52.282;10.560;2022-12-18T04:29:59;-8.70;99.90
26947;DHT22;14501;52.282;10.560;2022-12-18T04:32:25;-8.70;99.90
26947;DHT22;14501;52.282;10.560;2022-12-18T04:34:50;-8.70;99.90
26947;DHT22;14501;52.282;10.560;2022-12-18T04:37:16;-8.70;99.90
26947;DHT22;14501;52.282;10.560;2022-12-18T04:39:41;-8.70;99.90
26947;DHT22;14501;52.282;10.560;2022-12-18T04:42:07;-8.70;99.90
26947;DHT22;14501;52.282;10.560;2022-12-18T04:44:33;-8.70;99.90
26947;DHT22;14501;52.282;10.560;2022-12-18T04:46:58;-8.70;99.90
26947;DHT22;14501;52.282;10.560;2022-12-18T04:49:24;-8.70;99.90
26947;DHT22;14501;52.282;10.560;2022-12-18T04:51:49;-8.50;99.90
26947;DHT22;14501;52.282;10.560;2022-12-18T04:54:15;-8.80;99.90
26947;DHT22;14501;52.282;10.560;2022-12-18T05:01:35;-8.60;99.90
26947;DHT22;14501;52.282;10.560;2022-12-18T05:04:02;-8.20;99.90
26947;DHT22;14501;52.282;10.560;2022-12-18T05:06:28;-8.50;99.90
26947;DHT22;14501;52.282;10.560;2022-12-18T05:08:53;-8.50;99.90
26947;DHT22;14501;52.282;10.560;2022-12-18T05:11:19;-8.60;99.90
26947;DHT22;14501;52.282;10.560;2022-12-18T05:18:37;-8.50;99.90
26947;DHT22;14501;52.282;10.560;2022-12-18T05:21:03;-8.60;99.90
26947;DHT22;14501;52.282;10.560;2022-12-18T05:26:03;-8.50;99.90
26947;DHT22;14501;52.282;10.560;2022-12-18T05:28:31;-8.50;99.90
26947;DHT22;14501;52.282;10.560;2022-12-18T05:30:58;-8.50;99.90
26947;DHT22;14501;52.282;10.560;2022-12-18T05:33:26;-8.50;99.90
26947;DHT22;14501;52.282;10.560;2022-12-18T05:35:54;-8.60;99.90
26947;DHT22;14501;52.282;10.560;2022-12-18T05:40:48;-8.60;99.90
26947;DHT22;14501;52.282;10.560;2022-12-18T05:45:40;-8.70;99.90
26947;DHT22;14501;52.282;10.560;2022-12-18T05:48:07;-8.70;99.90
26947;DHT22;14501;52.282;10.560;2022-12-18T05:50:36;-8.70;99.90
26947;DHT22;14501;52.282;10.560;2022-12-18T05:53:03;-8.70;99.90
26947;DHT22;14501;52.282;10.560;2022-12-18T06:00:21;-8.70;99.90
26947;DHT22;14501;52.282;10.560;2022-12-18T06:10:06;-8.60;99.90
26947;DHT22;14501;52.282;10.560;2022-12-18T06:17:31;-8.60;99.90
26947;DHT22;14501;52.282;10.560;2022-12-18T06:19:57;-8.70;99.90
26947;DHT22;14501;52.282;10.560;2022-12-18T06:29:41;-8.60;99.90
26947;DHT22;14501;52.282;10.560;2022-12-18T06:34:33;-8.60;99.90
26947;DHT22;14501;52.282;10.560;2022-12-18T06:39:27;-8.70;99.90
26947;DHT22;14501;52.282;10.560;2022-12-18T06:41:52;-8.70;99.90
26947;DHT22;14501;52.282;10.560;2022-12-18T06:44:18;-8.60;99.90
26947;DHT22;14501;52.282;10.560;2022-12-18T06:49:10;-8.60;99.90
26947;DHT22;14501;52.282;10.560;2022-12-18T06:51:36;-8.60;99.90
26947;DHT22;14501;52.282;10.560;2022-12-18T06:54:02;-8.60;99.90
26947;DHT22;14501;52.282;10.560;2022-12-18T07:01:20;-8.40;99.90
26947;DHT22;14501;52.282;10.560;2022-12-18T07:06:14;-8.40;99.90
26947;DHT22;14501;52.282;10.560;2022-12-18T07:08:40;-8.40;99.90
26947;DHT22;14501;52.282;10.560;2022-12-18T07:11:06;-8.40;99.90
26947;DHT22;14501;52.282;10.560;2022-12-18T07:13:31;-8.40;99.90
26947;DHT22;14501;52.282;10.560;2022-12-18T07:16:09;-8.40;99.90
26947;DHT22;14501;52.282;10.560;2022-12-18T07:18:35;-8.40;99.90
26947;DHT22;14501;52.282;10.560;2022-12-18T07:21:11;-8.40;99.90
26947;DHT22;14501;52.282;10.560;2022-12-18T07:23:37;-8.50;99.90
26947;DHT22;14501;52.282;10.560;2022-12-18T07:26:08;-8.50;99.90
26947;DHT22;14501;52.282;10.560;2022-12-18T07:28:35;-8.60;99.90
26947;DHT22;14501;52.282;10.560;2022-12-18T07:31:06;-8.60;99.90
26947;DHT22;14501;52.282;10.560;2022-12-18T07:33:32;-8.60;99.90
26947;DHT22;14501;52.282;10.560;2022-12-18T07:36:03;-8.70;99.90
26947;DHT22;14501;52.282;10.560;2022-12-18T07:38:30;-8.60;99.90
26947;DHT22;14501;52.282;10.560;2022-12-18T07:41:07;-8.70;99.90
26947;DHT22;14501;52.282;10.560;2022-12-18T07:43:34;-8.70;99.90
26947;DHT22;14501;52.282;10.560;2022-12-18T07:45:59;-8.70;99.90
26947;DHT22;14501;52.282;10.560;2022-12-18T07:48:25;-8.70;99.90
26947;DHT22;14501;52.282;10.560;2022-12-18T07:50:51;-8.50;99.90
26947;DHT22;14501;52.282;10.560;2022-12-18T07:53:16;-8.40;99.90
26947;DHT22;14501;52.282;10.560;2022-12-18T07:55:42;-8.30;99.90
26947;DHT22;14501;52.282;10.560;2022-12-18T07:58:08;-8.10;99.90
26947;DHT22;14501;52.282;10.560;2022-12-18T08:00:34;-8.00;99.90
26947;DHT22;14501;52.282;10.560;2022-12-18T08:03:00;-7.90;99.90
26947;DHT22;14501;52.282;10.560;2022-12-18T08:05:25;-7.80;99.90
26947;DHT22;14501;52.282;10.560;2022-12-18T08:07:51;-7.70;99.90
26947;DHT22;14501;52.282;10.560;2022-12-18T08:10:17;-7.70;99.90
26947;DHT22;14501;52.282;10.560;2022-12-18T08:12:43;-7.50;99.90
26947;DHT22;14501;52.282;10.560;2022-12-18T08:15:09;-7.50;99.90
26947;DHT22;14501;52.282;10.560;2022-12-18T08:17:34;-7.40;99.90
26947;DHT22;14501;52.282;10.560;2022-12-18T08:20:00;-7.30;99.90
26947;DHT22;14501;52.282;10.560;2022-12-18T08:22:25;-7.30;99.90
26947;DHT22;14501;52.282;10.560;2022-12-18T08:24:51;-7.20;99.90
26947;DHT22;14501;52.282;10.560;2022-12-18T08:29:43;-6.80;99.90
26947;DHT22;14501;52.282;10.560;2022-12-18T08:37:02;-5.40;99.90
26947;DHT22;14501;52.282;10.560;2022-12-18T08:39:27;-5.20;99.90
26947;DHT22;14501;52.282;10.560;2022-12-18T08:41:53;-5.10;99.90
26947;DHT22;14501;52.282;10.560;2022-12-18T08:44:37;-4.80;99.90
26947;DHT22;14501;52.282;10.560;2022-12-18T08:47:03;-4.20;99.90
26947;DHT22;14501;52.282;10.560;2022-12-18T08:49:29;-3.50;99.90
26947;DHT22;14501;52.282;10.560;2022-12-18T08:51:55;-2.80;99.90
26947;DHT22;14501;52.282;10.560;2022-12-18T08:54:22;-2.10;99.90
26947;DHT22;14501;52.282;10.560;2022-12-18T08:59:16;-1.40;99.90
26947;DHT22;14501;52.282;10.560;2022-12-18T09:04:09;-1.20;99.90
26947;DHT22;14501;52.282;10.560;2022-12-18T09:06:35;-1.30;99.90
26947;DHT22;14501;52.282;10.560;2022-12-18T09:09:01;-1.30;99.90
26947;DHT22;14501;52.282;10.560;2022-12-18T09:11:28;-1.10;99.90
26947;DHT22;14501;52.282;10.560;2022-12-18T09:13:54;-0.70;99.90
26947;DHT22;14501;52.282;10.560;2022-12-18T09:16:21;-0.90;99.90
26947;DHT22;14501;52.282;10.560;2022-12-18T09:18:47;-0.60;99.90
26947;DHT22;14501;52.282;10.560;2022-12-18T09:21:19;-0.20;99.90
26947;DHT22;14501;52.282;10.560;2022-12-18T09:23:49;0.00;99.90
26947;DHT22;14501;52.282;10.560;2022-12-18T09:26:15;0.30;99.90
26947;DHT22;14501;52.282;10.560;2022-12-18T09:28:41;0.70;99.90
26947;DHT22;14501;52.282;10.560;2022-12-18T09:31:08;1.50;99.90
26947;DHT22;14501;52.282;10.560;2022-12-18T09:33:37;1.60;99.90
26947;DHT22;14501;52.282;10.560;2022-12-18T09:36:06;1.20;99.90
26947;DHT22;14501;52.282;10.560;2022-12-18T09:38:33;0.50;99.90
26947;DHT22;14501;52.282;10.560;2022-12-18T09:41:24;-0.10;99.90
26947;DHT22;14501;52.282;10.560;2022-12-18T09:44:00;-0.90;99.90
26947;DHT22;14501;52.282;10.560;2022-12-18T09:46:29;-1.30;99.90
26947;DHT22;14501;52.282;10.560;2022-12-18T09:48:59;-1.60;99.90
26947;DHT22;14501;52.282;10.560;2022-12-18T09:54:12;-1.90;99.90
26947;DHT22;14501;52.282;10.560;2022-12-18T09:56:41;-2.10;99.90
26947;DHT22;14501;52.282;10.560;2022-12-18T09:59:36;-2.20;99.90
26947;DHT22;14501;52.282;10.560;2022-12-18T10:02:22;-2.30;99.90
26947;DHT22;14501;52.282;10.560;2022-12-18T10:07:59;-2.80;99.90
26947;DHT22;14501;52.282;10.560;2022-12-18T10:10:33;-2.80;99.90
26947;DHT22;14501;52.282;10.560;2022-12-18T10:16:14;-2.80;99.90
26947;DHT22;14501;52.282;10.560;2022-12-18T10:21:37;-2.80;99.90
26947;DHT22;14501;52.282;10.560;2022-12-18T10:24:16;-2.90;99.90
26947;DHT22;14501;52.282;10.560;2022-12-18T10:26:45;-2.90;99.90
26947;DHT22;14501;52.282;10.560;2022-12-18T10:29:12;-2.90;99.90
26947;DHT22;14501;52.282;10.560;2022-12-18T10:31:38;-2.90;99.90
26947;DHT22;14501;52.282;10.560;2022-12-18T10:34:04;-2.90;99.90
26947;DHT22;14501;52.282;10.560;2022-12-18T10:36:29;-2.90;99.90
26947;DHT22;14501;52.282;10.560;2022-12-18T10:39:23;-2.80;99.90
26947;DHT22;14501;52.282;10.560;2022-12-18T10:41:50;-2.70;99.90
26947;DHT22;14501;52.282;10.560;2022-12-18T10:44:18;-2.70;99.90
26947;DHT22;14501;52.282;10.560;2022-12-18T10:46:46;-2.70;99.90
26947;DHT22;14501;52.282;10.560;2022-12-18T10:49:46;-2.80;99.90
26947;DHT22;14501;52.282;10.560;2022-12-18T10:52:21;-2.80;99.90
26947;DHT22;14501;52.282;10.560;2022-12-18T10:54:59;-2.70;99.90
26947;DHT22;14501;52.282;10.560;2022-12-18T10:57:39;-2.70;99.90
26947;DHT22;14501;52.282;10.560;2022-12-18T11:00:28;-2.60;99.90
26947;DHT22;14501;52.282;10.560;2022-12-18T11:02:55;-2.40;99.90
26947;DHT22;14501;52.282;10.560;2022-12-18T11:05:30;-2.40;99.90
26947;DHT22;14501;52.282;10.560;2022-12-18T11:07:58;-2.30;99.90
26947;DHT22;14501;52.282;10.560;2022-12-18T11:10:35;-2.30;99.90
26947;DHT22;14501;52.282;10.560;2022-12-18T11:13:16;-2.30;99.90
26947;DHT22;14501;52.282;10.560;2022-12-18T11:15:42;-2.10;99.90
26947;DHT22;14501;52.282;10.560;2022-12-18T11:18:25;-2.00;99.90
26947;DHT22;14501;52.282;10.560;2022-12-18T11:20:54;-1.90;99.90
26947;DHT22;14501;52.282;10.560;2022-12-18T11:23:21;-1.90;99.90
26947;DHT22;14501;52.282;10.560;2022-12-18T11:26:01;-1.80;99.90
26947;DHT22;14501;52.282;10.560;2022-12-18T11:28:29;-1.70;99.90
26947;DHT22;14501;52.282;10.560;2022-12-18T11:31:25;-1.30;99.90
26947;DHT22;14501;52.282;10.560;2022-12-18T11:34:19;-1.40;99.90
26947;DHT22;14501;52.282;10.560;2022-12-18T11:36:48;-1.30;99.90
26947;DHT22;14501;52.282;10.560;2022-12-18T11:39:39;-1.10;99.90
26947;DHT22;14501;52.282;10.560;2022-12-18T11:42:16;-1.10;99.90
26947;DHT22;14501;52.282;10.560;2022-12-18T11:44:58;-1.00;99.90
26947;DHT22;14501;52.282;10.560;2022-12-18T11:48:03;-0.90;99.90
26947;DHT22;14501;52.282;10.560;2022-12-18T11:53:11;-0.60;99.90
26947;DHT22;14501;52.282;10.560;2022-12-18T12:01:27;-0.10;99.90
26947;DHT22;14501;52.282;10.560;2022-12-18T12:04:11;0.10;99.90
26947;DHT22;14501;52.282;10.560;2022-12-18T12:28:03;1.60;99.90
26947;DHT22;14501;52.282;10.560;2022-12-18T12:30:40;1.70;99.90
26947;DHT22;14501;52.282;10.560;2022-12-18T12:33:26;1.60;99.90
26947;DHT22;14501;52.282;10.560;2022-12-18T12:38:43;1.80;99.90
26947;DHT22;14501;52.282;10.560;2022-12-18T12:41:14;1.90;99.90
26947;DHT22;14501;52.282;10.560;2022-12-18T12:44:01;2.00;99.90
26947;DHT22;14501;52.282;10.560;2022-12-18T12:46:31;2.10;99.90
26947;DHT22;14501;52.282;10.560;2022-12-18T12:49:19;1.90;99.90
26947;DHT22;14501;52.282;10.560;2022-12-18T12:51:53;1.90;99.90
26947;DHT22;14501;52.282;10.560;2022-12-18T12:54:24;1.60;99.90
26947;DHT22;14501;52.282;10.560;2022-12-18T12:57:24;1.40;99.90
26947;DHT22;14501;52.282;10.560;2022-12-18T13:02:33;0.80;99.90
26947;DHT22;14501;52.282;10.560;2022-12-18T13:07:54;0.40;99.90
26947;DHT22;14501;52.282;10.560;2022-12-18T13:10:30;0.40;99.90
26947;DHT22;14501;52.282;10.560;2022-12-18T13:13:15;0.30;99.90
26947;DHT22;14501;52.282;10.560;2022-12-18T13:15:48;0.20;99.90
26947;DHT22;14501;52.282;10.560;2022-12-18T13:18:20;0.10;99.90
26947;DHT22;14501;52.282;10.560;2022-12-18T13:20:49;0.00;99.90
26947;DHT22;14501;52.282;10.560;2022-12-18T13:23:39;-0.10;99.90
26947;DHT22;14501;52.282;10.560;2022-12-18T13:31:14;-0.40;99.90
26947;DHT22;14501;52.282;10.560;2022-12-18T13:33:43;-0.40;99.90
26947;DHT22;14501;52.282;10.560;2022-12-18T13:36:14;-0.50;99.90
26947;DHT22;14501;52.282;10.560;2022-12-18T13:38:41;-0.60;99.90
26947;DHT22;14501;52.282;10.560;2022-12-18T13:43:46;-0.60;99.90
26947;DHT22;14501;52.282;10.560;2022-12-18T13:46:42;-0.60;99.90
26947;DHT22;14501;52.282;10.560;2022-12-18T13:51:43;-0.70;99.90
26947;DHT22;14501;52.282;10.560;2022-12-18T13:54:39;-0.20;99.90
26947;DHT22;14501;52.282;10.560;2022-12-18T13:57:27;-0.90;99.90
26947;DHT22;14501;52.282;10.560;2022-12-18T13:59:54;-1.00;99.90
26947;DHT22;14501;52.282;10.560;2022-12-18T14:02:27;-1.20;99.90
26947;DHT22;14501;52.282;10.560;2022-12-18T14:04:54;-1.30;99.90
26947;DHT22;14501;52.282;10.560;2022-12-18T14:07:24;-1.40;99.90
26947;DHT22;14501;52.282;10.560;2022-12-18T14:10:00;-1.50;99.90
26947;DHT22;14501;52.282;10.560;2022-12-18T14:12:33;-1.60;99.90
26947;DHT22;14501;52.282;10.560;2022-12-18T14:15:32;-1.70;99.90
26947;DHT22;14501;52.282;10.560;2022-12-18T14:20:26;-1.90;99.90
26947;DHT22;14501;52.282;10.560;2022-12-18T14:22:52;-1.90;99.90
26947;DHT22;14501;52.282;10.560;2022-12-18T14:25:24;-2.00;99.90
26947;DHT22;14501;52.282;10.560;2022-12-18T14:27:52;-2.10;99.90
26947;DHT22;14501;52.282;10.560;2022-12-18T14:30:31;-2.20;99.90
26947;DHT22;14501;52.282;10.560;2022-12-18T14:33:02;-2.20;99.90
26947;DHT22;14501;52.282;10.560;2022-12-18T14:35:28;-2.30;99.90
26947;DHT22;14501;52.282;10.560;2022-12-18T14:38:07;-2.40;99.90
26947;DHT22;14501;52.282;10.560;2022-12-18T14:40:33;-2.50;99.90
26947;DHT22;14501;52.282;10.560;2022-12-18T14:42:58;-2.50;99.90
26947;DHT22;14501;52.282;10.560;2022-12-18T14:45:44;-2.50;99.90
26947;DHT22;14501;52.282;10.560;2022-12-18T14:50:37;-2.60;99.90
26947;DHT22;14501;52.282;10.560;2022-12-18T14:53:03;-2.70;99.90
26947;DHT22;14501;52.282;10.560;2022-12-18T14:55:29;-2.70;99.90
26947;DHT22;14501;52.282;10.560;2022-12-18T14:57:55;-2.70;99.90
26947;DHT22;14501;52.282;10.560;2022-12-18T15:00:24;-2.80;99.90
26947;DHT22;14501;52.282;10.560;2022-12-18T15:02:55;-2.80;99.90
26947;DHT22;14501;52.282;10.560;2022-12-18T15:05:30;-2.90;99.90
26947;DHT22;14501;52.282;10.560;2022-12-18T15:07:58;-2.90;99.90
26947;DHT22;14501;52.282;10.560;2022-12-18T15:10:32;-3.00;99.90
26947;DHT22;14501;52.282;10.560;2022-12-18T15:20:41;-3.10;99.90
26947;DHT22;14501;52.282;10.560;2022-12-18T15:25:40;-3.10;99.90
26947;DHT22;14501;52.282;10.560;2022-12-18T15:33:59;-3.20;99.90
26947;DHT22;14501;52.282;10.560;2022-12-18T15:36:29;-3.30;99.90
26947;DHT22;14501;52.282;10.560;2022-12-18T15:38:56;-3.20;99.90
26947;DHT22;14501;52.282;10.560;2022-12-18T15:41:23;-3.40;99.90
26947;DHT22;14501;52.282;10.560;2022-12-18T15:43:51;-3.40;99.90
26947;DHT22;14501;52.282;10.560;2022-12-18T15:46:22;-3.40;99.90
26947;DHT22;14501;52.282;10.560;2022-12-18T15:48:53;-3.30;99.90
26947;DHT22;14501;52.282;10.560;2022-12-18T15:53:51;-3.50;99.90
26947;DHT22;14501;52.282;10.560;2022-12-18T15:56:19;-3.50;99.90
26947;DHT22;14501;52.282;10.560;2022-12-18T15:59:11;-3.40;99.90
26947;DHT22;14501;52.282;10.560;2022-12-18T16:01:37;-3.40;99.90
26947;DHT22;14501;52.282;10.560;2022-12-18T16:04:03;-3.40;99.90
26947;DHT22;14501;52.282;10.560;2022-12-18T16:06:29;-3.30;99.90
26947;DHT22;14501;52.282;10.560;2022-12-18T16:08:54;-3.20;99.90
26947;DHT22;14501;52.282;10.560;2022-12-18T16:11:23;-3.40;99.90
26947;DHT22;14501;52.282;10.560;2022-12-18T16:14:25;-3.40;99.90
26947;DHT22;14501;52.282;10.560;2022-12-18T16:17:00;-3.40;99.90
26947;DHT22;14501;52.282;10.560;2022-12-18T16:19:27;-3.40;99.90
26947;DHT22;14501;52.282;10.560;2022-12-18T16:21:54;-3.40;99.90
26947;DHT22;14501;52.282;10.560;2022-12-18T16:24:23;-3.40;99.90
26947;DHT22;14501;52.282;10.560;2022-12-18T16:26:50;-3.40;99.90
26947;DHT22;14501;52.282;10.560;2022-12-18T16:29:22;-3.30;99.90
26947;DHT22;14501;52.282;10.560;2022-12-18T16:31:53;-3.30;99.90
26947;DHT22;14501;52.282;10.560;2022-12-18T16:34:24;-3.20;99.90
26947;DHT22;14501;52.282;10.560;2022-12-18T16:36:52;-3.20;99.90
26947;DHT22;14501;52.282;10.560;2022-12-18T16:39:19;-3.20;99.90
26947;DHT22;14501;52.282;10.560;2022-12-18T16:41:45;-3.10;99.90
26947;DHT22;14501;52.282;10.560;2022-12-18T16:44:11;-3.10;99.90
26947;DHT22;14501;52.282;10.560;2022-12-18T16:46:37;-3.00;99.90
26947;DHT22;14501;52.282;10.560;2022-12-18T16:49:04;-3.00;99.90
26947;DHT22;14501;52.282;10.560;2022-12-18T16:51:33;-2.90;99.90
26947;DHT22;14501;52.282;10.560;2022-12-18T16:53:59;-2.90;99.90
26947;DHT22;14501;52.282;10.560;2022-12-18T16:56:25;-2.80;99.90
26947;DHT22;14501;52.282;10.560;2022-12-18T16:58:55;-2.70;99.90
26947;DHT22;14501;52.282;10.560;2022-12-18T17:01:22;-2.70;99.90
26947;DHT22;14501;52.282;10.560;2022-12-18T17:03:55;-2.70;99.90
26947;DHT22;14501;52.282;10.560;2022-12-18T17:06:22;-2.70;99.90
26947;DHT22;14501;52.282;10.560;2022-12-18T17:08:55;-2.70;99.90
26947;DHT22;14501;52.282;10.560;2022-12-18T17:11:22;-2.60;99.90
26947;DHT22;14501;52.282;10.560;2022-12-18T17:13:48;-2.60;99.90
26947;DHT22;14501;52.282;10.560;2022-12-18T17:16:13;-2.60;99.90
26947;DHT22;14501;52.282;10.560;2022-12-18T17:18:39;-2.60;99.90
26947;DHT22;14501;52.282;10.560;2022-12-18T17:21:05;-2.50;99.90
26947;DHT22;14501;52.282;10.560;2022-12-18T17:23:34;-2.50;99.90
26947;DHT22;14501;52.282;10.560;2022-12-18T17:26:00;-2.50;99.90
26947;DHT22;14501;52.282;10.560;2022-12-18T17:28:27;-2.40;99.90
26947;DHT22;14501;52.282;10.560;2022-12-18T17:30:54;-2.40;99.90
26947;DHT22;14501;52.282;10.560;2022-12-18T17:33:20;-2.30;99.90
26947;DHT22;14501;52.282;10.560;2022-12-18T17:35:46;-2.20;99.90
26947;DHT22;14501;52.282;10.560;2022-12-18T17:38:12;-2.20;99.90
26947;DHT22;14501;52.282;10.560;2022-12-18T17:40:38;-2.10;99.90
26947;DHT22;14501;52.282;10.560;2022-12-18T17:43:08;-2.10;99.90
26947;DHT22;14501;52.282;10.560;2022-12-18T17:45:35;-2.00;99.90
26947;DHT22;14501;52.282;10.560;2022-12-18T17:48:02;-1.90;99.90
26947;DHT22;14501;52.282;10.560;2022-12-18T17:50:28;-1.90;99.90
26947;DHT22;14501;52.282;10.560;2022-12-18T17:52:55;-1.80;99.90
26947;DHT22;14501;52.282;10.560;2022-12-18T17:55:21;-1.70;99.90
26947;DHT22;14501;52.282;10.560;2022-12-18T17:57:47;-1.60;99.90
26947;DHT22;14501;52.282;10.560;2022-12-18T18:00:13;-1.60;99.90
26947;DHT22;14501;52.282;10.560;2022-12-18T18:02:39;-1.50;99.90
26947;DHT22;14501;52.282;10.560;2022-12-18T18:05:05;-1.40;99.90
26947;DHT22;14501;52.282;10.560;2022-12-18T18:07:31;-1.40;99.90
26947;DHT22;14501;52.282;10.560;2022-12-18T18:09:56;-1.40;99.90
26947;DHT22;14501;52.282;10.560;2022-12-18T18:12:22;-1.40;99.90
26947;DHT22;14501;52.282;10.560;2022-12-18T18:15:07;-1.40;99.90
26947;DHT22;14501;52.282;10.560;2022-12-18T18:17:33;-1.40;99.90
26947;DHT22;14501;52.282;10.560;2022-12-18T18:20:00;-1.40;99.90
26947;DHT22;14501;52.282;10.560;2022-12-18T18:22:29;-1.30;99.90
26947;DHT22;14501;52.282;10.560;2022-12-18T18:24:57;-1.30;99.90
26947;DHT22;14501;52.282;10.560;2022-12-18T18:27:24;-1.20;99.90
26947;DHT22;14501;52.282;10.560;2022-12-18T18:29:49;-1.20;99.90
26947;DHT22;14501;52.282;10.560;2022-12-18T18:32:15;-1.30;99.90
26947;DHT22;14501;52.282;10.560;2022-12-18T18:34:41;-1.30;99.90
26947;DHT22;14501;52.282;10.560;2022-12-18T18:37:08;-1.30;99.90